sensor_id;sensor_type;location;lat;lon;timestamp;P1;durP1;ratioP1;P2;durP2;ratioP2
8964;SDS011;4517;49.020;12.066;2023-02-28T00:00:32;14.80;;;13.40;;
8964;SDS011;4517;49.020;12.066;2023-02-28T00:02:59;19.90;;;13.10;;
8964;SDS011;4517;49.020;12.066;2023-02-28T00:05:25;13.60;;;12.43;;
8964;SDS011;4517;49.020;12.066;2023-02-28T00:07:52;13.90;;;12.70;;
8964;SDS011;4517;49.020;12.066;2023-02-28T00:10:19;14.63;;;12.50;;
8964;SDS011;4517;49.020;12.066;2023-02-28T00:12:49;13.63;;;12.47;;
8964;SDS011;4517;49.020;12.066;2023-02-28T00:15:15;13.80;;;12.40;;
8964;SDS011;4517;49.020;12.066;2023-02-28T00:17:41;15.20;;;12.73;;
8964;SDS011;4517;49.020;12.066;2023-02-28T00:20:08;15.83;;;13.10;;
8964;SDS011;4517;49.020;12.066;2023-02-28T00:22:35;13.90;;;12.70;;
8964;SDS011;4517;49.020;12.066;2023-02-28T00:25:01;14.23;;;13.03;;
8964;SDS011;4517;49.020;12.066;2023-02-28T00:27:28;13.87;;;12.50;;
8964;SDS011;4517;49.020;12.066;2023-02-28T00:29:54;13.20;;;12.00;;
8964;SDS011;4517;49.020;12.066;2023-02-28T00:32:20;13.00;;;11.77;;
8964;SDS011;4517;49.020;12.066;2023-02-28T00:34:45;13.37;;;12.27;;
8964;SDS011;4517;49.020;12.066;2023-02-28T00:37:11;16.53;;;14.00;;
8964;SDS011;4517;49.020;12.066;2023-02-28T00:39:37;13.13;;;12.13;;
8964;SDS011;4517;49.020;12.066;2023-02-28T00:42:04;13.60;;;12.30;;
8964;SDS011;4517;49.020;12.066;2023-02-28T00:44:30;14.97;;;13.70;;
8964;SDS011;4517;49.020;12.066;2023-02-28T00:46:56;13.90;;;12.80;;
8964;SDS011;4517;49.020;12.066;2023-02-28T00:49:23;14.73;;;12.93;;
8964;SDS011;4517;49.020;12.066;2023-02-28T00:51:48;15.07;;;13.67;;
8964;SDS011;4517;49.020;12.066;2023-02-28T00:54:15;14.90;;;13.37;;
8964;SDS011;4517;49.020;12.066;2023-02-28T00:56:40;14.63;;;13.23;;
8964;SDS011;4517;49.020;12.066;2023-02-28T00:59:06;14.30;;;13.10;;
8964;SDS011;4517;49.020;12.066;2023-02-28T01:01:32;14.80;;;13.50;;
8964;SDS011;4517;49.020;12.066;2023-02-28T01:03:57;14.20;;;12.87;;
8964;SDS011;4517;49.020;12.066;2023-02-28T01:06:23;13.67;;;12.43;;
8964;SDS011;4517;49.020;12.066;2023-02-28T01:08:49;14.20;;;12.03;;
8964;SDS011;4517;49.020;12.066;2023-02-28T01:11:15;14.83;;;13.10;;
8964;SDS011;4517;49.020;12.066;2023-02-28T01:13:42;13.20;;;12.00;;
8964;SDS011;4517;49.020;12.066;2023-02-28T01:16:09;14.53;;;13.10;;
8964;SDS011;4517;49.020;12.066;2023-02-28T01:18:35;14.17;;;12.87;;
8964;SDS011;4517;49.020;12.066;2023-02-28T01:21:08;13.93;;;12.70;;
8964;SDS011;4517;49.020;12.066;2023-02-28T01:23:36;15.67;;;14.07;;
8964;SDS011;4517;49.020;12.066;2023-02-28T01:26:05;15.10;;;13.30;;
8964;SDS011;4517;49.020;12.066;2023-02-28T01:28:33;15.97;;;12.70;;
8964;SDS011;4517;49.020;12.066;2023-02-28T01:30:58;13.67;;;12.57;;
8964;SDS011;4517;49.020;12.066;2023-02-28T01:33:24;13.90;;;12.70;;
8964;SDS011;4517;49.020;12.066;2023-02-28T01:35:56;15.07;;;13.80;;
8964;SDS011;4517;49.020;12.066;2023-02-28T01:38:23;15.03;;;13.53;;
8964;SDS011;4517;49.020;12.066;2023-02-28T01:40:49;14.30;;;13.00;;
8964;SDS011;4517;49.020;12.066;2023-02-28T01:43:28;14.40;;;13.10;;
8964;SDS011;4517;49.020;12.066;2023-02-28T01:46:14;14.30;;;13.00;;
8964;SDS011;4517;49.020;12.066;2023-02-28T01:48:41;14.13;;;12.73;;
8964;SDS011;4517;49.020;12.066;2023-02-28T01:51:14;13.90;;;12.90;;
8964;SDS011;4517;49.020;12.066;2023-02-28T01:53:47;13.93;;;12.80;;
8964;SDS011;4517;49.020;12.066;2023-02-28T01:56:23;14.17;;;13.03;;
8964;SDS011;4517;49.020;12.066;2023-02-28T01:58:51;17.90;;;13.17;;
8964;SDS011;4517;49.020;12.066;2023-02-28T02:01:19;14.50;;;13.00;;
8964;SDS011;4517;49.020;12.066;2023-02-28T02:03:49;15.33;;;13.10;;
8964;SDS011;4517;49.020;12.066;2023-02-28T02:06:21;13.97;;;12.87;;
8964;SDS011;4517;49.020;12.066;2023-02-28T02:08:48;16.03;;;13.33;;
8964;SDS011;4517;49.020;12.066;2023-02-28T02:11:14;13.30;;;12.10;;
8964;SDS011;4517;49.020;12.066;2023-02-28T02:25:47;15.47;;;12.87;;
8964;SDS011;4517;49.020;12.066;2023-02-28T02:28:46;13.70;;;12.43;;
8964;SDS011;4517;49.020;12.066;2023-02-28T02:34:55;14.07;;;12.73;;
8964;SDS011;4517;49.020;12.066;2023-02-28T02:40:08;13.80;;;12.60;;
8964;SDS011;4517;49.020;12.066;2023-02-28T02:42:51;12.80;;;11.70;;
8964;SDS011;4517;49.020;12.066;2023-02-28T02:48:00;19.80;;;14.30;;
8964;SDS011;4517;49.020;12.066;2023-02-28T02:50:31;15.57;;;13.20;;
8964;SDS011;4517;49.020;12.066;2023-02-28T02:53:01;14.50;;;12.97;;
8964;SDS011;4517;49.020;12.066;2023-02-28T02:55:29;15.27;;;13.77;;
8964;SDS011;4517;49.020;12.066;2023-02-28T02:57:59;14.03;;;12.70;;
8964;SDS011;4517;49.020;12.066;2023-02-28T03:00:34;14.33;;;13.00;;
8964;SDS011;4517;49.020;12.066;2023-02-28T03:03:03;14.60;;;13.30;;
8964;SDS011;4517;49.020;12.066;2023-02-28T03:05:41;14.47;;;13.27;;
8964;SDS011;4517;49.020;12.066;2023-02-28T03:08:12;16.30;;;14.93;;
8964;SDS011;4517;49.020;12.066;2023-02-28T03:10:39;14.30;;;12.83;;
8964;SDS011;4517;49.020;12.066;2023-02-28T03:13:22;16.07;;;14.47;;
8964;SDS011;4517;49.020;12.066;2023-02-28T03:16:07;14.20;;;12.83;;
8964;SDS011;4517;49.020;12.066;2023-02-28T03:24:49;15.83;;;14.23;;
8964;SDS011;4517;49.020;12.066;2023-02-28T03:27:27;15.67;;;14.37;;
8964;SDS011;4517;49.020;12.066;2023-02-28T03:35:25;17.13;;;13.73;;
8964;SDS011;4517;49.020;12.066;2023-02-28T03:38:03;15.27;;;13.77;;
8964;SDS011;4517;49.020;12.066;2023-02-28T03:40:39;15.57;;;13.93;;
8964;SDS011;4517;49.020;12.066;2023-02-28T03:43:09;15.53;;;13.93;;
8964;SDS011;4517;49.020;12.066;2023-02-28T03:45:39;15.17;;;13.70;;
8964;SDS011;4517;49.020;12.066;2023-02-28T03:50:40;15.90;;;14.40;;
8964;SDS011;4517;49.020;12.066;2023-02-28T03:53:11;15.60;;;14.07;;
8964;SDS011;4517;49.020;12.066;2023-02-28T03:55:50;17.80;;;15.20;;
8964;SDS011;4517;49.020;12.066;2023-02-28T03:58:42;14.73;;;13.23;;
8964;SDS011;4517;49.020;12.066;2023-02-28T04:01:40;14.67;;;12.97;;
8964;SDS011;4517;49.020;12.066;2023-02-28T04:04:08;15.00;;;13.37;;
8964;SDS011;4517;49.020;12.066;2023-02-28T04:06:35;14.93;;;12.60;;
8964;SDS011;4517;49.020;12.066;2023-02-28T04:09:02;16.07;;;13.33;;
8964;SDS011;4517;49.020;12.066;2023-02-28T04:11:33;15.63;;;13.53;;
8964;SDS011;4517;49.020;12.066;2023-02-28T04:14:01;25.60;;;14.67;;
8964;SDS011;4517;49.020;12.066;2023-02-28T04:16:28;16.73;;;14.47;;
8964;SDS011;4517;49.020;12.066;2023-02-28T04:18:54;15.50;;;14.00;;
8964;SDS011;4517;49.020;12.066;2023-02-28T04:21:26;16.50;;;15.07;;
8964;SDS011;4517;49.020;12.066;2023-02-28T04:23:53;17.70;;;14.80;;
8964;SDS011;4517;49.020;12.066;2023-02-28T04:26:19;15.50;;;13.87;;
8964;SDS011;4517;49.020;12.066;2023-02-28T04:28:45;15.93;;;14.23;;
8964;SDS011;4517;49.020;12.066;2023-02-28T04:31:10;18.47;;;13.57;;
8964;SDS011;4517;49.020;12.066;2023-02-28T04:33:36;20.87;;;13.80;;
8964;SDS011;4517;49.020;12.066;2023-02-28T04:36:02;14.73;;;13.33;;
8964;SDS011;4517;49.020;12.066;2023-02-28T04:38:34;18.50;;;13.73;;
8964;SDS011;4517;49.020;12.066;2023-02-28T04:41:03;15.10;;;13.57;;
8964;SDS011;4517;49.020;12.066;2023-02-28T04:43:29;18.80;;;14.87;;
8964;SDS011;4517;49.020;12.066;2023-02-28T04:45:56;16.90;;;15.30;;
8964;SDS011;4517;49.020;12.066;2023-02-28T04:48:23;19.47;;;14.93;;
8964;SDS011;4517;49.020;12.066;2023-02-28T04:50:49;18.23;;;14.77;;
8964;SDS011;4517;49.020;12.066;2023-02-28T04:53:16;15.40;;;13.93;;
8964;SDS011;4517;49.020;12.066;2023-02-28T04:55:42;16.60;;;14.40;;
8964;SDS011;4517;49.020;12.066;2023-02-28T04:58:08;20.20;;;16.30;;
8964;SDS011;4517;49.020;12.066;2023-02-28T05:00:33;15.67;;;14.10;;
8964;SDS011;4517;49.020;12.066;2023-02-28T05:02:59;15.97;;;14.40;;
8964;SDS011;4517;49.020;12.066;2023-02-28T05:05:24;16.73;;;14.37;;
8964;SDS011;4517;49.020;12.066;2023-02-28T05:07:50;17.57;;;15.53;;
8964;SDS011;4517;49.020;12.066;2023-02-28T05:10:16;19.33;;;15.87;;
8964;SDS011;4517;49.020;12.066;2023-02-28T05:12:41;14.20;;;12.80;;
8964;SDS011;4517;49.020;12.066;2023-02-28T05:15:08;18.57;;;14.70;;
8964;SDS011;4517;49.020;12.066;2023-02-28T05:17:38;21.33;;;15.30;;
8964;SDS011;4517;49.020;12.066;2023-02-28T05:20:04;17.50;;;14.23;;
8964;SDS011;4517;49.020;12.066;2023-02-28T05:22:31;16.97;;;15.10;;
8964;SDS011;4517;49.020;12.066;2023-02-28T05:24:57;17.40;;;15.40;;
8964;SDS011;4517;49.020;12.066;2023-02-28T05:27:22;16.83;;;14.87;;
8964;SDS011;4517;49.020;12.066;2023-02-28T05:29:48;17.67;;;14.90;;
8964;SDS011;4517;49.020;12.066;2023-02-28T05:32:14;22.17;;;15.90;;
8964;SDS011;4517;49.020;12.066;2023-02-28T05:34:40;21.30;;;15.37;;
8964;SDS011;4517;49.020;12.066;2023-02-28T05:37:06;18.63;;;15.00;;
8964;SDS011;4517;49.020;12.066;2023-02-28T05:39:37;17.70;;;15.40;;
8964;SDS011;4517;49.020;12.066;2023-02-28T05:42:03;18.87;;;14.50;;
8964;SDS011;4517;49.020;12.066;2023-02-28T05:44:29;18.87;;;15.13;;
8964;SDS011;4517;49.020;12.066;2023-02-28T05:46:55;16.97;;;15.17;;
8964;SDS011;4517;49.020;12.066;2023-02-28T05:49:20;20.43;;;15.83;;
8964;SDS011;4517;49.020;12.066;2023-02-28T05:51:46;19.47;;;15.30;;
8964;SDS011;4517;49.020;12.066;2023-02-28T05:54:11;18.13;;;16.27;;
8964;SDS011;4517;49.020;12.066;2023-02-28T05:56:37;18.77;;;14.97;;
8964;SDS011;4517;49.020;12.066;2023-02-28T05:59:04;22.60;;;16.50;;
8964;SDS011;4517;49.020;12.066;2023-02-28T06:01:37;16.40;;;14.70;;
8964;SDS011;4517;49.020;12.066;2023-02-28T06:04:13;18.10;;;15.37;;
8964;SDS011;4517;49.020;12.066;2023-02-28T06:06:42;18.87;;;14.27;;
8964;SDS011;4517;49.020;12.066;2023-02-28T06:09:12;17.30;;;14.90;;
8964;SDS011;4517;49.020;12.066;2023-02-28T06:11:38;20.03;;;15.37;;
8964;SDS011;4517;49.020;12.066;2023-02-28T06:14:03;23.47;;;15.97;;
8964;SDS011;4517;49.020;12.066;2023-02-28T06:16:30;35.27;;;15.50;;
8964;SDS011;4517;49.020;12.066;2023-02-28T06:18:57;17.80;;;16.00;;
8964;SDS011;4517;49.020;12.066;2023-02-28T06:21:24;18.00;;;16.17;;
8964;SDS011;4517;49.020;12.066;2023-02-28T06:23:50;18.97;;;16.10;;
8964;SDS011;4517;49.020;12.066;2023-02-28T06:26:15;21.73;;;15.80;;
8964;SDS011;4517;49.020;12.066;2023-02-28T06:28:41;17.70;;;15.83;;
8964;SDS011;4517;49.020;12.066;2023-02-28T06:31:08;19.30;;;15.60;;
8964;SDS011;4517;49.020;12.066;2023-02-28T06:33:35;22.67;;;17.47;;
8964;SDS011;4517;49.020;12.066;2023-02-28T06:36:01;19.03;;;16.43;;
8964;SDS011;4517;49.020;12.066;2023-02-28T06:38:27;20.50;;;14.73;;
8964;SDS011;4517;49.020;12.066;2023-02-28T06:40:56;15.87;;;14.20;;
8964;SDS011;4517;49.020;12.066;2023-02-28T06:43:24;21.50;;;16.17;;
8964;SDS011;4517;49.020;12.066;2023-02-28T06:45:57;24.30;;;16.47;;
8964;SDS011;4517;49.020;12.066;2023-02-28T06:48:25;17.07;;;15.20;;
8964;SDS011;4517;49.020;12.066;2023-02-28T06:50:52;18.50;;;16.37;;
8964;SDS011;4517;49.020;12.066;2023-02-28T06:53:17;25.23;;;16.10;;
8964;SDS011;4517;49.020;12.066;2023-02-28T06:55:43;22.10;;;16.57;;
8964;SDS011;4517;49.020;12.066;2023-02-28T06:58:09;17.70;;;15.70;;
8964;SDS011;4517;49.020;12.066;2023-02-28T07:00:44;16.33;;;14.70;;
8964;SDS011;4517;49.020;12.066;2023-02-28T07:03:10;16.20;;;14.67;;
8964;SDS011;4517;49.020;12.066;2023-02-28T07:05:38;20.87;;;14.43;;
8964;SDS011;4517;49.020;12.066;2023-02-28T07:08:05;13.87;;;12.77;;
8964;SDS011;4517;49.020;12.066;2023-02-28T07:10:31;14.03;;;12.80;;
8964;SDS011;4517;49.020;12.066;2023-02-28T07:13:02;23.43;;;14.67;;
8964;SDS011;4517;49.020;12.066;2023-02-28T07:15:29;19.27;;;17.37;;
8964;SDS011;4517;49.020;12.066;2023-02-28T07:17:54;19.57;;;17.47;;
8964;SDS011;4517;49.020;12.066;2023-02-28T07:20:21;16.87;;;14.70;;
8964;SDS011;4517;49.020;12.066;2023-02-28T07:22:47;15.33;;;14.07;;
8964;SDS011;4517;49.020;12.066;2023-02-28T07:25:20;16.33;;;14.63;;
8964;SDS011;4517;49.020;12.066;2023-02-28T07:27:46;16.07;;;14.60;;
8964;SDS011;4517;49.020;12.066;2023-02-28T07:30:12;19.73;;;15.90;;
8964;SDS011;4517;49.020;12.066;2023-02-28T07:32:38;22.80;;;14.67;;
8964;SDS011;4517;49.020;12.066;2023-02-28T07:35:03;18.70;;;15.30;;
8964;SDS011;4517;49.020;12.066;2023-02-28T07:37:29;15.97;;;14.50;;
8964;SDS011;4517;49.020;12.066;2023-02-28T07:39:56;18.10;;;15.63;;
8964;SDS011;4517;49.020;12.066;2023-02-28T07:42:22;18.47;;;16.47;;
8964;SDS011;4517;49.020;12.066;2023-02-28T07:44:47;17.50;;;15.90;;
8964;SDS011;4517;49.020;12.066;2023-02-28T07:47:13;21.40;;;19.53;;
8964;SDS011;4517;49.020;12.066;2023-02-28T07:49:39;16.03;;;14.73;;
8964;SDS011;4517;49.020;12.066;2023-02-28T07:52:05;17.10;;;15.40;;
8964;SDS011;4517;49.020;12.066;2023-02-28T07:54:31;19.00;;;15.93;;
8964;SDS011;4517;49.020;12.066;2023-02-28T07:56:57;16.97;;;14.97;;
8964;SDS011;4517;49.020;12.066;2023-02-28T07:59:24;18.17;;;16.27;;
8964;SDS011;4517;49.020;12.066;2023-02-28T08:01:50;23.17;;;16.90;;
8964;SDS011;4517;49.020;12.066;2023-02-28T08:04:17;18.47;;;16.50;;
8964;SDS011;4517;49.020;12.066;2023-02-28T08:06:43;19.27;;;17.37;;
8964;SDS011;4517;49.020;12.066;2023-02-28T08:09:09;20.90;;;15.90;;
8964;SDS011;4517;49.020;12.066;2023-02-28T08:11:34;14.90;;;13.60;;
8964;SDS011;4517;49.020;12.066;2023-02-28T08:14:01;23.03;;;16.13;;
8964;SDS011;4517;49.020;12.066;2023-02-28T08:16:27;23.33;;;15.33;;
8964;SDS011;4517;49.020;12.066;2023-02-28T08:18:53;20.70;;;17.70;;
8964;SDS011;4517;49.020;12.066;2023-02-28T08:21:19;17.90;;;15.90;;
8964;SDS011;4517;49.020;12.066;2023-02-28T08:23:48;17.43;;;15.60;;
8964;SDS011;4517;49.020;12.066;2023-02-28T08:26:15;16.27;;;14.73;;
8964;SDS011;4517;49.020;12.066;2023-02-28T08:28:41;18.73;;;16.83;;
8964;SDS011;4517;49.020;12.066;2023-02-28T08:31:08;17.13;;;15.33;;
8964;SDS011;4517;49.020;12.066;2023-02-28T08:33:35;18.83;;;16.60;;
8964;SDS011;4517;49.020;12.066;2023-02-28T08:36:01;34.07;;;16.73;;
8964;SDS011;4517;49.020;12.066;2023-02-28T08:38:27;17.13;;;15.30;;
8964;SDS011;4517;49.020;12.066;2023-02-28T08:40:59;17.87;;;15.97;;
8964;SDS011;4517;49.020;12.066;2023-02-28T08:43:28;20.10;;;17.53;;
8964;SDS011;4517;49.020;12.066;2023-02-28T08:45:54;16.60;;;14.97;;
8964;SDS011;4517;49.020;12.066;2023-02-28T08:48:24;17.87;;;14.90;;
8964;SDS011;4517;49.020;12.066;2023-02-28T08:50:57;17.30;;;15.60;;
8964;SDS011;4517;49.020;12.066;2023-02-28T08:53:28;20.30;;;16.77;;
8964;SDS011;4517;49.020;12.066;2023-02-28T08:56:01;17.70;;;15.97;;
8964;SDS011;4517;49.020;12.066;2023-02-28T08:58:28;17.63;;;16.03;;
8964;SDS011;4517;49.020;12.066;2023-02-28T09:00:55;18.17;;;16.63;;
8964;SDS011;4517;49.020;12.066;2023-02-28T09:03:22;17.93;;;16.20;;
8964;SDS011;4517;49.020;12.066;2023-02-28T09:05:51;23.70;;;16.43;;
8964;SDS011;4517;49.020;12.066;2023-02-28T09:08:22;17.47;;;15.80;;
8964;SDS011;4517;49.020;12.066;2023-02-28T09:10:48;18.30;;;16.70;;
8964;SDS011;4517;49.020;12.066;2023-02-28T09:13:14;24.20;;;21.90;;
8964;SDS011;4517;49.020;12.066;2023-02-28T09:15:39;18.07;;;16.17;;
8964;SDS011;4517;49.020;12.066;2023-02-28T09:18:05;30.53;;;17.60;;
8964;SDS011;4517;49.020;12.066;2023-02-28T09:20:31;31.20;;;17.63;;
8964;SDS011;4517;49.020;12.066;2023-02-28T09:22:56;23.53;;;17.43;;
8964;SDS011;4517;49.020;12.066;2023-02-28T09:25:22;20.47;;;17.00;;
8964;SDS011;4517;49.020;12.066;2023-02-28T09:27:47;20.67;;;17.33;;
8964;SDS011;4517;49.020;12.066;2023-02-28T09:30:13;18.47;;;16.80;;
8964;SDS011;4517;49.020;12.066;2023-02-28T09:32:39;18.17;;;16.37;;
8964;SDS011;4517;49.020;12.066;2023-02-28T09:35:05;19.57;;;17.60;;
8964;SDS011;4517;49.020;12.066;2023-02-28T09:37:31;19.50;;;17.67;;
8964;SDS011;4517;49.020;12.066;2023-02-28T09:39:57;20.70;;;18.67;;
8964;SDS011;4517;49.020;12.066;2023-02-28T09:42:29;20.43;;;18.23;;
8964;SDS011;4517;49.020;12.066;2023-02-28T09:44:57;19.73;;;17.67;;
8964;SDS011;4517;49.020;12.066;2023-02-28T09:47:36;21.27;;;19.13;;
8964;SDS011;4517;49.020;12.066;2023-02-28T09:52:57;18.57;;;16.80;;
8964;SDS011;4517;49.020;12.066;2023-02-28T09:55:33;19.00;;;17.20;;
8964;SDS011;4517;49.020;12.066;2023-02-28T09:58:04;19.70;;;17.80;;
8964;SDS011;4517;49.020;12.066;2023-02-28T10:00:35;18.17;;;16.40;;
8964;SDS011;4517;49.020;12.066;2023-02-28T10:03:48;18.27;;;16.40;;
8964;SDS011;4517;49.020;12.066;2023-02-28T10:06:02;20.60;;;17.50;;
8964;SDS011;4517;49.020;12.066;2023-02-28T10:08:52;19.47;;;17.23;;
8964;SDS011;4517;49.020;12.066;2023-02-28T10:11:26;21.47;;;17.30;;
8964;SDS011;4517;49.020;12.066;2023-02-28T10:16:40;19.90;;;17.83;;
8964;SDS011;4517;49.020;12.066;2023-02-28T10:19:30;18.00;;;16.30;;
8964;SDS011;4517;49.020;12.066;2023-02-28T10:24:44;20.23;;;17.87;;
8964;SDS011;4517;49.020;12.066;2023-02-28T10:29:46;23.53;;;16.90;;
8964;SDS011;4517;49.020;12.066;2023-02-28T10:32:20;18.83;;;16.90;;
8964;SDS011;4517;49.020;12.066;2023-02-28T10:35:00;18.03;;;15.97;;
8964;SDS011;4517;49.020;12.066;2023-02-28T10:37:42;21.27;;;18.80;;
8964;SDS011;4517;49.020;12.066;2023-02-28T10:45:55;18.03;;;16.33;;
8964;SDS011;4517;49.020;12.066;2023-02-28T10:53:16;19.30;;;17.30;;
8964;SDS011;4517;49.020;12.066;2023-02-28T11:06:44;20.27;;;18.17;;
8964;SDS011;4517;49.020;12.066;2023-02-28T11:09:22;20.70;;;18.60;;
8964;SDS011;4517;49.020;12.066;2023-02-28T11:11:54;19.23;;;16.83;;
8964;SDS011;4517;49.020;12.066;2023-02-28T11:14:27;18.40;;;16.70;;
8964;SDS011;4517;49.020;12.066;2023-02-28T11:16:55;18.63;;;16.67;;
8964;SDS011;4517;49.020;12.066;2023-02-28T11:19:27;19.50;;;17.70;;
8964;SDS011;4517;49.020;12.066;2023-02-28T11:21:59;19.63;;;17.40;;
8964;SDS011;4517;49.020;12.066;2023-02-28T11:24:29;18.93;;;17.03;;
8964;SDS011;4517;49.020;12.066;2023-02-28T11:27:00;16.63;;;15.10;;
8964;SDS011;4517;49.020;12.066;2023-02-28T11:29:27;20.93;;;18.00;;
8964;SDS011;4517;49.020;12.066;2023-02-28T11:32:01;20.33;;;18.23;;
8964;SDS011;4517;49.020;12.066;2023-02-28T11:34:35;18.40;;;16.50;;
8964;SDS011;4517;49.020;12.066;2023-02-28T11:37:02;20.53;;;18.33;;
8964;SDS011;4517;49.020;12.066;2023-02-28T11:39:33;19.03;;;17.10;;
8964;SDS011;4517;49.020;12.066;2023-02-28T11:42:16;19.03;;;17.00;;
8964;SDS011;4517;49.020;12.066;2023-02-28T11:45:08;20.30;;;18.20;;
8964;SDS011;4517;49.020;12.066;2023-02-28T11:47:52;19.17;;;17.17;;
8964;SDS011;4517;49.020;12.066;2023-02-28T11:55:52;19.97;;;18.00;;
8964;SDS011;4517;49.020;12.066;2023-02-28T11:58:27;19.47;;;17.67;;
8964;SDS011;4517;49.020;12.066;2023-02-28T12:06:54;21.70;;;18.93;;
8964;SDS011;4517;49.020;12.066;2023-02-28T12:12:47;20.33;;;18.33;;
8964;SDS011;4517;49.020;12.066;2023-02-28T12:20:42;22.40;;;18.33;;
8964;SDS011;4517;49.020;12.066;2023-02-28T12:26:26;21.20;;;18.03;;
8964;SDS011;4517;49.020;12.066;2023-02-28T12:29:25;28.73;;;18.20;;
8964;SDS011;4517;49.020;12.066;2023-02-28T12:32:11;20.83;;;18.93;;
8964;SDS011;4517;49.020;12.066;2023-02-28T12:34:44;20.87;;;18.67;;
8964;SDS011;4517;49.020;12.066;2023-02-28T12:37:15;19.17;;;17.20;;
8964;SDS011;4517;49.020;12.066;2023-02-28T12:39:48;23.17;;;17.43;;
8964;SDS011;4517;49.020;12.066;2023-02-28T12:42:24;22.17;;;17.53;;
8964;SDS011;4517;49.020;12.066;2023-02-28T12:45:02;19.83;;;17.80;;
8964;SDS011;4517;49.020;12.066;2023-02-28T12:47:42;17.90;;;16.07;;
8964;SDS011;4517;49.020;12.066;2023-02-28T12:50:11;20.73;;;17.90;;
8964;SDS011;4517;49.020;12.066;2023-02-28T12:55:14;20.57;;;18.60;;
8964;SDS011;4517;49.020;12.066;2023-02-28T13:00:43;17.70;;;16.20;;
8964;SDS011;4517;49.020;12.066;2023-02-28T13:09:02;18.90;;;16.90;;
8964;SDS011;4517;49.020;12.066;2023-02-28T13:11:38;20.53;;;18.27;;
8964;SDS011;4517;49.020;12.066;2023-02-28T13:17:02;18.70;;;16.70;;
8964;SDS011;4517;49.020;12.066;2023-02-28T13:19:29;19.53;;;17.13;;
8964;SDS011;4517;49.020;12.066;2023-02-28T13:21:57;19.20;;;17.20;;
8964;SDS011;4517;49.020;12.066;2023-02-28T13:24:41;18.53;;;16.70;;
8964;SDS011;4517;49.020;12.066;2023-02-28T13:27:11;35.20;;;18.03;;
8964;SDS011;4517;49.020;12.066;2023-02-28T13:29:49;23.03;;;18.87;;
8964;SDS011;4517;49.020;12.066;2023-02-28T13:39:51;19.73;;;17.77;;
8964;SDS011;4517;49.020;12.066;2023-02-28T13:58:33;20.43;;;18.50;;
8964;SDS011;4517;49.020;12.066;2023-02-28T14:01:55;19.90;;;17.90;;
8964;SDS011;4517;49.020;12.066;2023-02-28T14:07:23;19.17;;;17.20;;
8964;SDS011;4517;49.020;12.066;2023-02-28T14:09:56;18.47;;;16.70;;
8964;SDS011;4517;49.020;12.066;2023-02-28T14:17:59;20.20;;;18.30;;
8964;SDS011;4517;49.020;12.066;2023-02-28T14:20:29;20.97;;;18.60;;
8964;SDS011;4517;49.020;12.066;2023-02-28T14:23:04;18.17;;;16.50;;
8964;SDS011;4517;49.020;12.066;2023-02-28T14:38:51;19.50;;;17.57;;
8964;SDS011;4517;49.020;12.066;2023-02-28T14:46:59;19.57;;;17.40;;
8964;SDS011;4517;49.020;12.066;2023-02-28T14:49:32;20.27;;;16.93;;
8964;SDS011;4517;49.020;12.066;2023-02-28T14:54:45;18.30;;;16.60;;
8964;SDS011;4517;49.020;12.066;2023-02-28T14:57:23;19.60;;;17.67;;
8964;SDS011;4517;49.020;12.066;2023-02-28T15:02:45;20.03;;;17.93;;
8964;SDS011;4517;49.020;12.066;2023-02-28T15:07:47;18.70;;;16.80;;
8964;SDS011;4517;49.020;12.066;2023-02-28T15:15:24;21.53;;;19.53;;
8964;SDS011;4517;49.020;12.066;2023-02-28T15:18:04;20.60;;;18.60;;
8964;SDS011;4517;49.020;12.066;2023-02-28T15:20:31;20.43;;;17.40;;
8964;SDS011;4517;49.020;12.066;2023-02-28T15:22:59;18.77;;;16.83;;
8964;SDS011;4517;49.020;12.066;2023-02-28T15:25:25;20.27;;;18.47;;
8964;SDS011;4517;49.020;12.066;2023-02-28T15:27:52;21.10;;;18.63;;
8964;SDS011;4517;49.020;12.066;2023-02-28T15:30:23;18.10;;;16.37;;
8964;SDS011;4517;49.020;12.066;2023-02-28T15:35:49;19.83;;;17.83;;
8964;SDS011;4517;49.020;12.066;2023-02-28T15:38:25;19.40;;;17.50;;
8964;SDS011;4517;49.020;12.066;2023-02-28T15:40:55;19.20;;;17.17;;
8964;SDS011;4517;49.020;12.066;2023-02-28T15:43:24;22.17;;;19.67;;
8964;SDS011;4517;49.020;12.066;2023-02-28T15:45:56;20.70;;;18.60;;
8964;SDS011;4517;49.020;12.066;2023-02-28T15:48:32;21.10;;;19.00;;
8964;SDS011;4517;49.020;12.066;2023-02-28T15:51:08;20.00;;;18.00;;
8964;SDS011;4517;49.020;12.066;2023-02-28T15:53:47;19.80;;;17.83;;
8964;SDS011;4517;49.020;12.066;2023-02-28T15:56:28;22.17;;;19.90;;
8964;SDS011;4517;49.020;12.066;2023-02-28T15:58:57;20.97;;;18.80;;
8964;SDS011;4517;49.020;12.066;2023-02-28T16:01:25;18.47;;;16.67;;
8964;SDS011;4517;49.020;12.066;2023-02-28T16:03:56;21.53;;;19.23;;
8964;SDS011;4517;49.020;12.066;2023-02-28T16:08:58;23.43;;;18.57;;
8964;SDS011;4517;49.020;12.066;2023-02-28T16:11:23;22.80;;;19.37;;
8964;SDS011;4517;49.020;12.066;2023-02-28T16:13:49;22.17;;;19.80;;
8964;SDS011;4517;49.020;12.066;2023-02-28T16:16:20;21.97;;;19.27;;
8964;SDS011;4517;49.020;12.066;2023-02-28T16:18:48;22.93;;;19.47;;
8964;SDS011;4517;49.020;12.066;2023-02-28T16:21:14;22.70;;;19.03;;
8964;SDS011;4517;49.020;12.066;2023-02-28T16:23:39;20.90;;;18.60;;
8964;SDS011;4517;49.020;12.066;2023-02-28T16:26:06;20.90;;;18.03;;
8964;SDS011;4517;49.020;12.066;2023-02-28T16:28:33;21.40;;;18.80;;
8964;SDS011;4517;49.020;12.066;2023-02-28T16:31:02;21.70;;;19.17;;
8964;SDS011;4517;49.020;12.066;2023-02-28T16:33:34;25.20;;;19.20;;
8964;SDS011;4517;49.020;12.066;2023-02-28T16:36:00;20.20;;;18.03;;
8964;SDS011;4517;49.020;12.066;2023-02-28T16:38:26;22.40;;;19.37;;
8964;SDS011;4517;49.020;12.066;2023-02-28T16:40:51;24.60;;;19.77;;
8964;SDS011;4517;49.020;12.066;2023-02-28T16:43:22;23.03;;;20.33;;
8964;SDS011;4517;49.020;12.066;2023-02-28T16:45:50;24.77;;;20.60;;
8964;SDS011;4517;49.020;12.066;2023-02-28T16:48:25;25.70;;;19.40;;
8964;SDS011;4517;49.020;12.066;2023-02-28T16:50:50;22.90;;;20.60;;
8964;SDS011;4517;49.020;12.066;2023-02-28T16:53:16;25.10;;;18.80;;
8964;SDS011;4517;49.020;12.066;2023-02-28T16:55:42;21.73;;;19.23;;
8964;SDS011;4517;49.020;12.066;2023-02-28T16:58:10;22.70;;;18.50;;
8964;SDS011;4517;49.020;12.066;2023-02-28T17:00:39;27.60;;;19.07;;
8964;SDS011;4517;49.020;12.066;2023-02-28T17:03:08;21.40;;;18.77;;
8964;SDS011;4517;49.020;12.066;2023-02-28T17:05:41;27.90;;;21.17;;
8964;SDS011;4517;49.020;12.066;2023-02-28T17:08:08;22.53;;;20.07;;
8964;SDS011;4517;49.020;12.066;2023-02-28T17:10:34;29.87;;;21.17;;
8964;SDS011;4517;49.020;12.066;2023-02-28T17:13:00;22.57;;;19.87;;
8964;SDS011;4517;49.020;12.066;2023-02-28T17:15:26;28.60;;;21.23;;
8964;SDS011;4517;49.020;12.066;2023-02-28T17:17:52;21.50;;;19.20;;
8964;SDS011;4517;49.020;12.066;2023-02-28T17:20:19;28.07;;;19.90;;
8964;SDS011;4517;49.020;12.066;2023-02-28T17:22:49;24.37;;;20.07;;
8964;SDS011;4517;49.020;12.066;2023-02-28T17:25:16;28.63;;;22.63;;
8964;SDS011;4517;49.020;12.066;2023-02-28T17:27:42;24.77;;;19.63;;
8964;SDS011;4517;49.020;12.066;2023-02-28T17:30:15;24.70;;;20.93;;
8964;SDS011;4517;49.020;12.066;2023-02-28T17:32:43;31.10;;;20.10;;
8964;SDS011;4517;49.020;12.066;2023-02-28T17:35:09;27.00;;;21.37;;
8964;SDS011;4517;49.020;12.066;2023-02-28T17:37:35;32.23;;;21.40;;
8964;SDS011;4517;49.020;12.066;2023-02-28T17:40:01;25.17;;;20.60;;
8964;SDS011;4517;49.020;12.066;2023-02-28T17:42:27;24.20;;;21.17;;